Time;durP1;ratioP1;P1;durP2;ratioP2;P2;SDS_P1;SDS_P2;PMS_P1;PMS_P2;Temp;Humidity;BMP_temperature;BMP_pressure;BME280_temperature;BME280_humidity;BME280_pressure;Samples;Min_cycle;Max_cycle;Signal;HPM_P1;HPM_P2
2021/08/15 00:02:09;;;;;;;11.93;4.65;;;27.70;64.20;;;;;;5030779;28;20048;-68
2021/08/15 00:05:14;;;;;;;13.23;5.20;;;27.70;64.10;;;;;;5030843;28;20052;-67
2021/08/15 00:08:18;;;;;;;10.15;4.55;;;27.70;64.00;;;;;;5030165;28;20487;-68
2021/08/15 00:11:22;;;;;;;12.23;4.43;;;27.70;64.00;;;;;;5030745;28;20503;-68
2021/08/15 00:14:27;;;;;;;11.70;4.75;;;27.70;64.00;;;;;;5030719;28;20070;-67
2021/08/15 00:17:31;;;;;;;12.73;4.00;;;27.60;64.00;;;;;;5030564;28;20496;-68
2021/08/15 00:20:35;;;;;;;11.73;4.43;;;27.60;64.00;;;;;;5030358;28;20045;-67
2021/08/15 00:23:40;;;;;;;16.08;4.88;;;27.60;64.00;;;;;;5030502;28;20045;-68
2021/08/15 00:26:44;;;;;;;14.35;4.65;;;27.50;63.80;;;;;;5029687;28;20510;-68
2021/08/15 00:29:49;;;;;;;10.55;4.68;;;27.50;64.00;;;;;;5038091;28;20369;-68
2021/08/15 00:32:53;;;;;;;12.32;4.70;;;27.50;64.10;;;;;;5050456;28;20048;-68
2021/08/15 00:35:57;;;;;;;10.18;4.47;;;27.50;63.90;;;;;;5050439;28;20044;-68
2021/08/15 00:39:01;;;;;;;10.43;4.28;;;27.50;64.10;;;;;;5049564;28;20112;-68
2021/08/15 00:42:05;;;;;;;10.68;4.28;;;27.50;64.20;;;;;;5050156;28;20065;-67
2021/08/15 00:45:10;;;;;;;12.68;4.65;;;27.40;63.50;;;;;;5049836;28;20051;-68
2021/08/15 00:48:15;;;;;;;8.80;4.80;;;27.40;63.60;;;;;;5049599;28;20040;-68
2021/08/15 00:51:19;;;;;;;18.65;7.10;;;27.30;63.80;;;;;;5049684;28;20048;-67
2021/08/15 00:54:23;;;;;;;16.50;7.32;;;27.30;63.50;;;;;;5049640;28;20423;-68
2021/08/15 00:57:30;;;;;;;15.07;7.78;;;27.30;63.40;;;;;;5049881;28;20052;-68
2021/08/15 01:00:35;;;;;;;16.67;9.85;;;27.30;63.70;;;;;;5049649;28;20063;-68
2021/08/15 01:03:40;;;;;;;19.33;12.10;;;27.20;63.60;;;;;;5049640;28;20053;-68
2021/08/15 01:06:44;;;;;;;22.23;13.75;;;27.20;64.00;;;;;;5049623;28;20052;-68
2021/08/15 01:09:47;;;;;;;24.27;14.93;;;27.20;63.80;;;;;;5049092;28;20048;-67
2021/08/15 01:12:52;;;;;;;22.73;14.77;;;27.20;63.90;;;;;;5049714;28;20055;-68
2021/08/15 01:15:56;;;;;;;24.58;15.27;;;27.10;64.00;;;;;;5049746;28;20056;-67
2021/08/15 01:19:00;;;;;;;24.23;15.88;;;27.00;63.80;;;;;;5048962;28;20052;-67
2021/08/15 01:22:04;;;;;;;17.63;14.13;;;27.00;63.70;;;;;;5049544;28;20047;-67
2021/08/15 01:25:10;;;;;;;24.67;10.40;;;26.60;65.00;;;;;;5049581;28;20055;-67
2021/08/15 01:28:19;;;;;;;14.85;7.43;;;26.50;65.70;;;;;;5049016;28;20044;-67
2021/08/15 01:31:24;;;;;;;17.08;6.53;;;26.30;67.10;;;;;;5029399;28;20492;-67
2021/08/15 01:34:29;;;;;;;12.27;6.50;;;26.00;71.30;;;;;;5029392;28;20045;-67
2021/08/15 01:37:33;;;;;;;14.40;5.68;;;25.70;71.90;;;;;;5029496;28;20499;-67
2021/08/15 01:40:37;;;;;;;12.25;6.60;;;25.60;72.90;;;;;;5029298;28;20045;-67
2021/08/15 01:43:52;;;;;;;13.05;6.57;;;25.50;74.20;;;;;;5029667;28;20064;-67
2021/08/15 01:46:57;;;;;;;14.18;6.53;;;25.50;74.10;;;;;;5029576;28;20049;-67
2021/08/15 01:50:02;;;;;;;13.38;6.30;;;25.40;74.80;;;;;;5029108;28;20045;-67
2021/08/15 01:53:11;;;;;;;15.25;6.20;;;25.40;74.30;;;;;;5029501;28;20045;-67
2021/08/15 01:56:16;;;;;;;12.02;6.45;;;25.30;74.70;;;;;;5029476;28;20044;-67
2021/08/15 01:59:20;;;;;;;10.10;6.65;;;25.30;75.10;;;;;;5029054;28;20052;-67
2021/08/15 02:02:24;;;;;;;16.17;6.45;;;25.20;75.00;;;;;;5033297;28;20064;-67
2021/08/15 02:05:28;;;;;;;12.93;6.72;;;25.20;75.70;;;;;;5033082;28;20400;-67
2021/08/15 02:08:32;;;;;;;20.15;7.20;;;25.20;76.00;;;;;;5032699;28;20037;-67
2021/08/15 02:11:37;;;;;;;14.40;7.18;;;25.20;76.20;;;;;;5032768;28;20499;-67
2021/08/15 02:14:41;;;;;;;19.00;6.68;;;25.10;76.50;;;;;;5033032;28;20534;-67
2021/08/15 02:17:46;;;;;;;10.98;7.00;;;25.10;76.40;;;;;;5032883;28;20395;-67
2021/08/15 02:20:50;;;;;;;12.73;7.28;;;25.10;76.40;;;;;;5032481;28;20518;-67
2021/08/15 02:23:55;;;;;;;13.38;6.88;;;25.00;76.40;;;;;;5033037;28;20044;-67
2021/08/15 02:26:59;;;;;;;15.32;7.20;;;24.90;76.40;;;;;;5032636;28;20049;-67
2021/08/15 02:30:05;;;;;;;19.25;9.20;;;24.90;76.60;;;;;;5042524;28;20068;-67
2021/08/15 02:33:09;;;;;;;12.27;7.95;;;24.90;75.90;;;;;;5052990;28;20048;-67
2021/08/15 02:36:13;;;;;;;14.60;8.07;;;24.90;76.30;;;;;;5052697;28;20051;-67
2021/08/15 02:39:17;;;;;;;16.35;8.63;;;24.90;76.30;;;;;;5049932;28;20048;-67
2021/08/15 02:42:21;;;;;;;15.23;8.45;;;24.90;75.60;;;;;;5048030;28;20052;-67
2021/08/15 02:45:27;;;;;;;16.50;8.68;;;24.90;75.40;;;;;;5047231;28;20040;-67
2021/08/15 02:48:32;;;;;;;16.80;8.82;;;24.90;75.00;;;;;;5051620;28;20373;-68
2021/08/15 02:51:36;;;;;;;16.30;8.55;;;24.90;75.40;;;;;;5042313;28;20040;-67
2021/08/15 02:54:42;;;;;;;20.88;10.73;;;24.80;75.20;;;;;;5039708;28;20044;-68
2021/08/15 02:57:45;;;;;;;16.10;9.10;;;24.80;74.60;;;;;;5050093;28;20051;-67
2021/08/15 03:00:53;;;;;;;15.88;9.77;;;24.80;73.70;;;;;;5051874;28;20047;-67
2021/08/15 03:03:57;;;;;;;14.50;9.13;;;24.70;74.50;;;;;;5052205;28;20048;-67
2021/08/15 03:07:15;;;;;;;21.42;9.68;;;24.60;74.80;;;;;;5051910;28;20104;-67
2021/08/15 03:10:19;;;;;;;18.67;9.63;;;24.50;75.30;;;;;;5051988;28;20052;-67
2021/08/15 03:13:23;;;;;;;16.05;8.98;;;24.40;74.80;;;;;;5051381;28;20052;-67
2021/08/15 03:16:27;;;;;;;15.57;9.48;;;24.30;76.50;;;;;;5051942;28;20495;-67
2021/08/15 03:19:31;;;;;;;15.13;8.95;;;24.20;77.00;;;;;;5051433;28;20052;-67
2021/08/15 03:22:35;;;;;;;14.23;9.27;;;24.10;78.00;;;;;;5052011;28;20048;-67
2021/08/15 03:25:40;;;;;;;14.32;9.90;;;24.00;79.10;;;;;;5051608;28;20044;-67
2021/08/15 03:28:44;;;;;;;13.82;9.13;;;23.90;79.80;;;;;;5051137;28;20052;-67
2021/08/15 03:31:48;;;;;;;13.77;8.55;;;23.80;80.10;;;;;;5051573;28;20048;-67
2021/08/15 03:34:53;;;;;;;15.57;8.80;;;23.80;80.90;;;;;;5051389;28;20044;-67
2021/08/15 03:37:57;;;;;;;16.63;8.45;;;23.70;80.80;;;;;;5050353;28;20409;-67
2021/08/15 03:41:01;;;;;;;13.40;8.35;;;23.80;81.10;;;;;;5051220;28;20056;-67
2021/08/15 03:44:05;;;;;;;14.90;8.32;;;23.70;81.80;;;;;;5051342;28;20055;-67
2021/08/15 03:47:11;;;;;;;15.18;8.10;;;23.70;81.70;;;;;;5051306;28;20040;-67
2021/08/15 03:50:15;;;;;;;17.75;8.82;;;23.60;82.20;;;;;;5050983;28;20099;-68
2021/08/15 03:53:19;;;;;;;14.68;8.40;;;23.50;82.90;;;;;;5050842;28;20044;-68
2021/08/15 03:56:23;;;;;;;17.10;9.60;;;23.50;83.20;;;;;;5050942;28;20411;-68
2021/08/15 03:59:27;;;;;;;15.07;9.88;;;23.40;83.70;;;;;;5050261;28;20056;-68
2021/08/15 04:02:31;;;;;;;14.18;8.30;;;23.40;85.40;;;;;;5050549;28;20048;-68
2021/08/15 04:05:36;;;;;;;13.18;8.00;;;23.30;86.80;;;;;;5050724;28;20048;-67
2021/08/15 04:08:40;;;;;;;14.25;8.82;;;23.40;88.10;;;;;;5050280;28;20048;-67
2021/08/15 04:11:44;;;;;;;17.38;8.82;;;23.30;88.20;;;;;;5050661;28;20502;-67
2021/08/15 04:14:49;;;;;;;10.43;7.70;;;23.30;89.10;;;;;;5051054;28;20404;-67
2021/08/15 04:17:54;;;;;;;16.38;9.23;;;23.30;89.80;;;;;;5050194;28;20060;-67
2021/08/15 04:20:58;;;;;;;11.15;8.70;;;23.30;90.20;;;;;;5050448;28;20044;-68
2021/08/15 04:24:02;;;;;;;12.32;8.80;;;23.40;90.00;;;;;;5049767;28;20490;-67
2021/08/15 04:27:07;;;;;;;13.55;9.10;;;23.50;89.90;;;;;;5050496;28;20052;-68
2021/08/15 04:30:12;;;;;;;11.88;8.45;;;23.40;89.90;;;;;;5050268;28;20044;-67
2021/08/15 04:33:18;;;;;;;14.32;9.15;;;23.50;90.10;;;;;;5050358;28;20052;-68
2021/08/15 04:36:22;;;;;;;13.38;8.63;;;23.50;90.10;;;;;;5050573;28;20457;-68
2021/08/15 04:39:26;;;;;;;20.25;9.32;;;23.60;88.80;;;;;;5050371;28;20047;-67
2021/08/15 04:42:30;;;;;;;15.63;9.52;;;23.50;89.00;;;;;;5050384;28;20052;-67
2021/08/15 04:45:35;;;;;;;22.55;10.02;;;23.60;90.10;;;;;;5049051;28;20400;-67
2021/08/15 04:48:39;;;;;;;16.98;9.25;;;23.60;90.40;;;;;;5050108;28;20391;-67
2021/08/15 04:51:43;;;;;;;20.95;9.10;;;23.60;90.90;;;;;;5050589;28;20040;-67
2021/08/15 04:54:47;;;;;;;13.52;8.00;;;23.60;91.00;;;;;;5050803;28;20048;-67
2021/08/15 04:57:51;;;;;;;16.38;8.15;;;23.60;91.20;;;;;;5050039;28;20052;-67
2021/08/15 05:00:55;;;;;;;12.93;8.38;;;23.60;91.40;;;;;;5049891;28;20052;-67
2021/08/15 05:03:59;;;;;;;13.00;7.95;;;23.70;91.40;;;;;;5050184;28;20062;-68
2021/08/15 05:07:03;;;;;;;18.75;8.60;;;23.70;91.20;;;;;;5050147;28;20052;-68
2021/08/15 05:10:08;;;;;;;19.13;8.20;;;23.80;90.90;;;;;;5049874;28;20424;-68
2021/08/15 05:13:12;;;;;;;14.93;8.57;;;23.90;91.10;;;;;;5050179;28;20048;-67
2021/08/15 05:16:17;;;;;;;18.85;8.77;;;24.00;91.20;;;;;;5050328;28;20388;-67
2021/08/15 05:19:21;;;;;;;17.50;7.70;;;25.00;90.80;;;;;;5049581;28;20048;-67
2021/08/15 05:22:25;;;;;;;15.10;7.75;;;27.00;86.90;;;;;;5049963;28;20514;-68
2021/08/15 05:25:29;;;;;;;20.08;7.57;;;28.30;82.50;;;;;;5050051;28;20052;-68
2021/08/15 05:28:33;;;;;;;14.32;7.68;;;29.40;80.10;;;;;;5049890;28;20051;-68
2021/08/15 05:31:37;;;;;;;13.82;7.70;;;30.70;76.70;;;;;;5049753;28;20040;-67
2021/08/15 05:34:41;;;;;;;11.93;7.47;;;31.60;72.70;;;;;;5050281;28;20048;-67
2021/08/15 05:37:45;;;;;;;10.85;6.88;;;32.10;72.20;;;;;;5053807;28;20060;-67
2021/08/15 05:40:49;;;;;;;11.68;6.50;;;33.10;70.00;;;;;;5053847;28;20052;-67
2021/08/15 05:43:53;;;;;;;12.38;6.40;;;33.80;68.60;;;;;;5053659;28;20055;-67
2021/08/15 05:46:58;;;;;;;22.90;6.80;;;34.00;67.90;;;;;;5053545;28;20502;-68
2021/08/15 05:50:04;;;;;;;12.82;7.20;;;33.50;68.20;;;;;;5052938;28;20051;-68
2021/08/15 05:53:09;;;;;;;10.80;6.85;;;34.10;67.60;;;;;;5053564;28;20400;-68
2021/08/15 05:56:13;;;;;;;15.20;7.32;;;33.90;67.60;;;;;;5053733;28;20056;-67
2021/08/15 05:59:17;;;;;;;10.95;6.80;;;34.30;66.90;;;;;;5052905;28;20072;-68
2021/08/15 06:02:22;;;;;;;16.02;6.88;;;33.20;66.20;;;;;;5033309;28;20053;-68
2021/08/15 06:05:26;;;;;;;15.07;7.57;;;31.90;67.40;;;;;;5033676;28;20048;-67
2021/08/15 06:08:30;;;;;;;12.60;6.72;;;31.70;67.40;;;;;;5033327;28;20487;-67
2021/08/15 06:11:34;;;;;;;11.63;6.63;;;31.40;70.40;;;;;;5033092;28;20060;-67
2021/08/15 06:14:38;;;;;;;14.77;6.55;;;32.50;70.30;;;;;;5033130;28;20044;-67
2021/08/15 06:17:43;;;;;;;13.38;6.70;;;33.00;69.40;;;;;;5032989;28;20395;-67
2021/08/15 06:20:49;;;;;;;15.70;7.78;;;33.40;69.10;;;;;;5032886;28;20056;-67
2021/08/15 06:23:53;;;;;;;10.63;5.82;;;34.60;67.40;;;;;;5032538;28;20053;-68
2021/08/15 06:27:00;;;;;;;11.43;6.30;;;35.30;65.90;;;;;;5033069;28;20045;-67
2021/08/15 06:30:04;;;;;;;18.38;6.53;;;35.70;65.30;;;;;;5032433;28;20048;-67
2021/08/15 06:33:08;;;;;;;12.63;6.05;;;35.90;64.90;;;;;;5031791;28;20044;-68
2021/08/15 06:36:14;;;;;;;16.58;5.60;;;36.10;64.50;;;;;;5032745;28;20053;-68
2021/08/15 06:39:18;;;;;;;13.15;6.47;;;36.60;62.70;;;;;;5032289;28;20048;-68
2021/08/15 06:42:22;;;;;;;13.77;6.40;;;37.30;61.70;;;;;;5032364;28;20069;-68
2021/08/15 06:45:26;;;;;;;12.52;5.35;;;37.70;61.10;;;;;;5032561;28;20045;-68
2021/08/15 06:48:30;;;;;;;9.48;5.75;;;37.90;60.70;;;;;;5031414;28;20048;-68
2021/08/15 06:51:34;;;;;;;9.73;5.22;;;38.20;59.90;;;;;;5032447;28;20040;-68
2021/08/15 06:54:38;;;;;;;10.27;6.32;;;38.30;58.50;;;;;;5032182;28;20041;-68
2021/08/15 06:57:43;;;;;;;9.90;5.85;;;38.70;56.80;;;;;;5032195;28;20554;-68
2021/08/15 07:00:46;;;;;;;10.75;5.97;;;38.80;57.40;;;;;;5043584;28;20047;-68
2021/08/15 07:03:50;;;;;;;11.85;4.70;;;38.80;57.60;;;;;;5052003;28;20052;-68
2021/08/15 07:06:54;;;;;;;14.05;6.32;;;39.00;57.00;;;;;;5052262;28;20040;-68
2021/08/15 07:09:58;;;;;;;12.90;5.70;;;37.80;58.40;;;;;;5051973;28;20056;-67
2021/08/15 07:13:07;;;;;;;13.38;5.60;;;36.40;59.20;;;;;;5051931;28;20036;-67
2021/08/15 07:16:11;;;;;;;14.40;5.90;;;35.30;61.60;;;;;;5052118;28;20048;-68
2021/08/15 07:19:16;;;;;;;12.07;6.15;;;34.40;62.90;;;;;;5051942;28;20052;-68
2021/08/15 07:22:21;;;;;;;7.88;5.40;;;35.40;62.30;;;;;;5051547;28;20040;-67
2021/08/15 07:25:28;;;;;;;11.32;5.82;;;35.40;61.70;;;;;;5051634;28;20388;-67
2021/08/15 07:28:32;;;;;;;8.40;5.38;;;36.20;61.50;;;;;;5051341;28;20052;-67
2021/08/15 07:31:36;;;;;;;10.43;5.13;;;35.30;61.30;;;;;;5051580;28;20044;-68
2021/08/15 07:34:40;;;;;;;9.80;5.25;;;36.00;61.20;;;;;;5051350;28;20044;-67
2021/08/15 07:37:44;;;;;;;12.55;5.25;;;34.70;61.70;;;;;;5051535;28;20050;-67
2021/08/15 07:40:49;;;;;;;7.57;4.90;;;36.20;61.80;;;;;;5051268;28;20044;-67
2021/08/15 07:43:53;;;;;;;13.48;5.40;;;37.80;59.60;;;;;;5051395;28;20051;-67
2021/08/15 07:46:57;;;;;;;10.77;5.35;;;38.00;59.60;;;;;;5051480;28;20036;-67
2021/08/15 07:50:03;;;;;;;11.80;4.68;;;38.30;59.20;;;;;;5050975;28;20040;-67
2021/08/15 07:53:34;;;;;;;16.83;5.43;;;39.00;58.00;;;;;;5051789;28;20044;-67
2021/08/15 07:56:38;;;;;;;11.13;4.72;;;38.80;57.80;;;;;;5051330;28;20079;-68
2021/08/15 07:59:42;;;;;;;8.60;4.80;;;39.50;57.20;;;;;;5050123;28;20051;-68
2021/08/15 08:02:48;;;;;;;9.80;5.05;;;38.00;58.10;;;;;;5050875;28;20044;-68
2021/08/15 08:05:52;;;;;;;8.82;4.90;;;39.50;57.10;;;;;;5050330;28;20048;-68
2021/08/15 08:08:58;;;;;;;10.68;5.00;;;39.70;56.40;;;;;;5050324;28;20136;-68
2021/08/15 08:12:02;;;;;;;10.20;4.90;;;38.20;58.50;;;;;;5050658;28;20056;-68
2021/08/15 08:15:08;;;;;;;9.43;4.88;;;39.10;57.30;;;;;;5050339;28;20503;-68
2021/08/15 08:18:12;;;;;;;9.00;4.57;;;40.40;55.90;;;;;;5050174;28;20048;-67
2021/08/15 08:21:18;;;;;;;10.73;4.88;;;41.00;55.60;;;;;;5050439;28;20047;-67
2021/08/15 08:24:22;;;;;;;12.90;5.60;;;40.10;55.60;;;;;;5050306;28;20048;-68
2021/08/15 08:27:27;;;;;;;9.65;4.40;;;40.50;55.70;;;;;;5050677;28;20395;-67
2021/08/15 08:30:31;;;;;;;12.77;4.88;;;41.50;54.40;;;;;;5050402;28;20040;-67
2021/08/15 08:33:35;;;;;;;9.40;5.28;;;41.50;54.30;;;;;;5050640;28;20044;-67
2021/08/15 08:36:39;;;;;;;13.57;5.07;;;40.50;54.60;;;;;;5050432;28;20051;-67
2021/08/15 08:39:43;;;;;;;9.35;4.20;;;42.30;53.70;;;;;;5049794;28;20100;-68
2021/08/15 08:42:48;;;;;;;9.38;4.43;;;42.80;53.00;;;;;;5050279;28;20036;-68
2021/08/15 08:45:54;;;;;;;7.90;4.60;;;43.10;52.40;;;;;;5049646;28;20143;-69
2021/08/15 08:48:58;;;;;;;9.88;4.55;;;44.30;52.80;;;;;;5049800;28;20052;-68
2021/08/15 08:52:02;;;;;;;7.05;4.50;;;45.40;51.50;;;;;;5050024;28;20044;-68
2021/08/15 08:55:08;;;;;;;6.90;4.22;;;46.40;50.40;;;;;;5049549;28;20044;-68
2021/08/15 08:58:12;;;;;;;10.68;4.47;;;46.50;49.90;;;;;;5049552;28;20407;-68
2021/08/15 09:01:17;;;;;;;12.57;4.18;;;46.70;49.90;;;;;;5049702;28;20048;-68
2021/08/15 09:04:22;;;;;;;13.05;5.03;;;47.20;49.20;;;;;;5050010;28;20048;-68
2021/08/15 09:07:36;;;;;;;10.48;4.97;;;43.70;50.80;;;;;;5060394;28;20396;-68
2021/08/15 09:10:40;;;;;;;9.88;4.78;;;44.70;51.60;;;;;;5049441;28;20044;-68
2021/08/15 09:14:00;;;;;;;7.40;5.00;;;45.70;49.30;;;;;;5050304;28;20495;-68
2021/08/15 09:17:06;;;;;;;9.60;4.78;;;46.40;49.20;;;;;;5049824;28;20534;-69
2021/08/15 09:20:14;;;;;;;7.60;4.20;;;47.30;48.70;;;;;;5050069;28;20478;-68
2021/08/15 09:23:28;;;;;;;8.38;4.78;;;47.80;47.90;;;;;;5043649;28;20519;-68
2021/08/15 09:26:32;;;;;;;11.43;4.60;;;48.60;45.40;;;;;;5041235;28;20502;-68
2021/08/15 09:29:36;;;;;;;11.35;4.70;;;48.90;45.60;;;;;;5049373;28;20040;-68
2021/08/15 09:32:54;;;;;;;14.70;5.93;;;49.50;45.10;;;;;;5049507;28;20526;-69
2021/08/15 09:35:58;;;;;;;11.95;4.85;;;47.90;45.20;;;;;;5049383;28;20412;-68
2021/08/15 09:39:05;;;;;;;13.82;4.38;;;47.10;45.70;;;;;;5049652;28;20047;-68
2021/08/15 09:42:09;;;;;;;19.55;4.60;;;47.70;44.20;;;;;;5049579;28;20044;-65
2021/08/15 09:45:40;;;;;;;11.43;3.90;;;50.00;44.40;;;;;;5049635;28;20048;-68
2021/08/15 09:48:45;;;;;;;9.52;4.13;;;51.70;43.20;;;;;;5049405;28;20036;-68
2021/08/15 09:51:49;;;;;;;9.05;4.00;;;50.00;44.90;;;;;;5049358;28;20040;-68
2021/08/15 09:54:56;;;;;;;8.32;3.72;;;49.40;45.10;;;;;;5049640;28;20048;-67
2021/08/15 09:58:16;;;;;;;9.35;3.55;;;49.60;45.20;;;;;;5029046;28;20053;-67
2021/08/15 10:01:20;;;;;;;5.13;3.30;;;51.20;44.10;;;;;;5029441;28;20048;-66
2021/08/15 10:04:25;;;;;;;7.22;3.75;;;52.60;42.70;;;;;;5029493;28;20042;-66
2021/08/15 10:07:32;;;;;;;13.38;4.47;;;54.20;42.30;;;;;;5029333;28;20049;-66
2021/08/15 10:10:37;;;;;;;10.57;3.88;;;54.90;41.90;;;;;;5029630;28;20040;-66
2021/08/15 10:13:42;;;;;;;8.73;3.53;;;53.30;41.60;;;;;;5029620;28;20109;-65
2021/08/15 10:16:56;;;;;;;9.65;3.65;;;50.40;41.90;;;;;;5029444;28;20048;-66
2021/08/15 10:20:07;;;;;;;10.63;3.75;;;50.40;43.10;;;;;;5029007;28;20041;-67
2021/08/15 10:23:12;;;;;;;11.00;3.90;;;47.30;43.90;;;;;;5032925;28;20523;-68
2021/08/15 10:26:45;;;;;;;7.88;3.30;;;49.30;43.90;;;;;;5032831;28;20052;-65
2021/08/15 10:29:49;;;;;;;10.63;3.47;;;51.80;43.40;;;;;;5038505;28;20047;-66
2021/08/15 10:32:57;;;;;;;10.50;4.20;;;52.30;42.80;;;;;;5053017;28;20056;-68
2021/08/15 10:36:20;;;;;;;7.75;3.03;;;52.20;42.60;;;;;;5052788;28;20044;-68
2021/08/15 10:39:44;;;;;;;11.63;4.10;;;53.70;42.10;;;;;;5052572;28;20048;-67
2021/08/15 10:42:48;;;;;;;6.45;3.22;;;47.80;42.90;;;;;;5052489;28;20040;-67
2021/08/15 10:46:18;;;;;;;9.90;3.50;;;50.10;43.30;;;;;;5052609;28;20044;-68
2021/08/15 10:49:45;;;;;;;7.32;3.35;;;52.00;42.30;;;;;;5050619;28;20051;-67
2021/08/15 10:52:49;;;;;;;11.52;4.00;;;53.30;42.40;;;;;;5032970;28;20045;-66
2021/08/15 10:56:05;;;;;;;9.30;3.67;;;54.60;42.00;;;;;;5032341;28;20531;-66
2021/08/15 10:59:31;;;;;;;8.70;3.33;;;54.70;41.60;;;;;;5043787;28;20044;-66
2021/08/15 11:02:36;;;;;;;9.18;3.60;;;55.50;41.30;;;;;;5051982;28;20040;-66
2021/08/15 11:05:40;;;;;;;10.27;3.40;;;55.40;41.20;;;;;;5052081;28;20052;-67
2021/08/15 11:08:47;;;;;;;11.65;4.07;;;56.10;41.00;;;;;;5031790;28;20049;-68
2021/08/15 11:12:10;;;;;;;9.27;3.63;;;53.80;41.50;;;;;;5032341;28;20060;-68
2021/08/15 11:15:22;;;;;;;10.90;3.65;;;52.90;42.00;;;;;;5032358;28;20052;-68
2021/08/15 11:18:27;;;;;;;10.18;4.00;;;52.70;42.40;;;;;;5031426;28;20108;-66
2021/08/15 11:22:15;;;;;;;7.88;3.42;;;54.20;42.00;;;;;;5032400;28;20055;-66
2021/08/15 11:25:25;;;;;;;8.68;4.10;;;54.70;41.50;;;;;;5048081;28;20040;-65
2021/08/15 11:28:31;;;;;;;8.45;3.97;;;50.20;41.70;;;;;;5051488;28;20044;-67
2021/08/15 11:31:36;;;;;;;11.35;4.63;;;48.40;44.10;;;;;;5051735;28;20403;-68
2021/08/15 11:34:57;;;;;;;13.77;4.07;;;48.40;44.10;;;;;;5051248;28;20040;-68
2021/08/15 11:38:03;;;;;;;9.60;3.65;;;49.70;43.90;;;;;;5051140;28;20052;-68
2021/08/15 11:41:12;;;;;;;9.10;4.00;;;50.60;43.40;;;;;;5051575;28;20491;-68
2021/08/15 11:44:17;;;;;;;12.82;3.50;;;50.50;43.30;;;;;;5051245;28;20044;-68
2021/08/15 11:47:24;;;;;;;9.10;3.60;;;49.60;42.90;;;;;;5051278;28;20052;-67
2021/08/15 11:50:32;;;;;;;11.73;3.83;;;50.90;42.20;;;;;;5051251;28;20044;-68
2021/08/15 11:53:37;;;;;;;22.25;5.70;;;51.30;41.80;;;;;;5051001;28;20040;-66
2021/08/15 11:56:42;;;;;;;10.57;3.72;;;49.50;41.90;;;;;;5051047;28;20110;-65
2021/08/15 11:59:59;;;;;;;17.05;3.97;;;47.50;43.10;;;;;;5050707;28;20039;-67
2021/08/15 12:03:11;;;;;;;11.13;3.75;;;46.10;44.80;;;;;;5051158;28;20206;-67
2021/08/15 12:06:15;;;;;;;10.52;3.17;;;48.40;43.80;;;;;;5051564;28;20044;-68
2021/08/15 12:09:25;;;;;;;19.88;4.22;;;49.50;42.60;;;;;;5050577;28;20043;-66
2021/08/15 12:12:29;;;;;;;10.45;4.00;;;50.70;42.20;;;;;;5061569;28;20360;-67
2021/08/15 12:15:33;;;;;;;16.13;4.15;;;49.50;42.20;;;;;;5050742;28;20048;-67
2021/08/15 12:18:48;;;;;;;15.77;3.63;;;49.00;42.80;;;;;;5050145;28;20044;-68
2021/08/15 12:21:52;;;;;;;19.45;4.40;;;49.50;42.00;;;;;;5050728;28;20052;-67
2021/08/15 12:24:59;;;;;;;14.45;3.58;;;48.00;41.40;;;;;;5050800;28;20048;-67
2021/08/15 12:28:13;;;;;;;16.23;3.70;;;48.40;41.90;;;;;;5049986;28;20395;-68
2021/08/15 12:31:28;;;;;;;19.55;3.92;;;49.10;42.10;;;;;;5050395;28;20052;-68
2021/08/15 12:34:38;;;;;;;15.05;3.88;;;50.20;41.40;;;;;;5050729;28;20056;-68
2021/08/15 12:37:43;;;;;;;13.05;3.33;;;50.30;41.50;;;;;;5050119;28;20044;-68
2021/08/15 12:40:48;;;;;;;14.35;3.35;;;50.20;42.40;;;;;;5050258;28;20043;-68
2021/08/15 12:44:26;;;;;;;13.90;3.38;;;50.40;41.60;;;;;;5050376;28;20382;-68
2021/08/15 12:47:34;;;;;;;15.13;3.88;;;50.80;41.50;;;;;;5034079;28;20499;-67
2021/08/15 12:50:40;;;;;;;13.25;3.85;;;50.50;41.30;;;;;;5050174;28;20048;-68
2021/08/15 12:53:44;;;;;;;14.50;3.47;;;50.00;40.90;;;;;;5050375;28;20047;-67
2021/08/15 12:56:48;;;;;;;11.63;3.92;;;49.70;41.20;;;;;;5049855;28;20052;-67
2021/08/15 12:59:52;;;;;;;18.33;4.30;;;49.80;41.40;;;;;;5048630;28;20052;-67
2021/08/15 13:02:57;;;;;;;15.93;3.47;;;48.90;41.50;;;;;;5049911;28;20040;-65
2021/08/15 13:06:03;;;;;;;14.68;4.10;;;45.50;42.50;;;;;;5049924;28;20391;-67
2021/08/15 13:09:08;;;;;;;16.02;4.95;;;45.30;43.50;;;;;;5049291;28;20060;-67
2021/08/15 13:12:11;;;;;;;17.83;4.50;;;46.10;43.40;;;;;;5050133;28;20329;-66
2021/08/15 13:15:16;;;;;;;12.68;3.60;;;46.30;43.30;;;;;;5050197;28;20048;-67
2021/08/15 13:18:21;;;;;;;18.85;4.03;;;45.10;43.50;;;;;;5049142;28;20047;-66
2021/08/15 13:21:25;;;;;;;19.50;5.35;;;45.30;43.90;;;;;;5049710;28;20040;-66
2021/08/15 13:24:32;;;;;;;11.75;3.88;;;45.40;44.00;;;;;;5049939;28;20043;-67
2021/08/15 13:27:39;;;;;;;13.55;4.00;;;45.30;44.20;;;;;;5049732;28;20059;-67
2021/08/15 13:30:43;;;;;;;14.63;4.28;;;44.80;44.90;;;;;;5049633;28;20502;-65
2021/08/15 13:33:47;;;;;;;15.82;4.18;;;44.90;45.40;;;;;;5049722;28;20052;-65
2021/08/15 13:36:51;;;;;;;10.38;3.90;;;44.60;45.10;;;;;;5049827;28;20067;-67
2021/08/15 13:40:00;;;;;;;14.77;4.80;;;44.50;45.40;;;;;;5049289;28;20059;-67
2021/08/15 13:43:04;;;;;;;11.52;4.70;;;44.60;45.70;;;;;;5049849;28;20048;-67
2021/08/15 13:46:09;;;;;;;13.95;4.07;;;44.20;45.80;;;;;;5049493;28;20052;-67
2021/08/15 13:49:13;;;;;;;17.80;5.03;;;43.90;46.30;;;;;;5049122;28;20376;-66
2021/08/15 13:52:19;;;;;;;16.15;5.05;;;44.00;46.10;;;;;;5049501;28;20048;-67
2021/08/15 13:55:24;;;;;;;15.45;4.40;;;43.80;46.60;;;;;;5049535;28;20044;-66
2021/08/15 13:58:32;;;;;;;13.63;4.13;;;43.60;46.70;;;;;;5053436;28;20044;-67
2021/08/15 14:01:37;;;;;;;14.20;4.28;;;41.00;47.80;;;;;;5053354;28;20499;-66
2021/08/15 14:04:42;;;;;;;12.65;4.50;;;41.70;47.80;;;;;;5053361;28;20048;-65
2021/08/15 14:07:48;;;;;;;19.45;5.03;;;41.90;47.30;;;;;;5052881;28;20052;-67
2021/08/15 14:10:53;;;;;;;20.10;4.28;;;42.00;48.10;;;;;;5053375;28;20047;-67
2021/08/15 14:13:57;;;;;;;26.23;5.55;;;42.40;47.90;;;;;;5053489;28;20044;-67
2021/08/15 14:17:05;;;;;;;13.00;4.25;;;42.00;48.50;;;;;;5053207;28;20119;-67
2021/08/15 14:20:10;;;;;;;20.92;5.05;;;41.90;48.10;;;;;;5052818;28;20239;-66
2021/08/15 14:23:14;;;;;;;14.93;4.43;;;40.50;49.10;;;;;;5053054;28;20048;-66
2021/08/15 14:26:20;;;;;;;20.00;4.53;;;39.60;50.80;;;;;;5052740;28;20040;-66
2021/08/15 14:29:24;;;;;;;12.52;4.35;;;40.30;50.30;;;;;;5051537;28;20087;-66
2021/08/15 14:32:29;;;;;;;8.88;4.30;;;40.60;49.70;;;;;;5052854;28;20087;-67
2021/08/15 14:35:33;;;;;;;14.10;4.50;;;40.80;49.30;;;;;;5052818;28;20116;-66
2021/08/15 14:38:37;;;;;;;16.10;4.55;;;41.10;49.60;;;;;;5052269;28;20048;-66
2021/08/15 14:41:42;;;;;;;13.20;4.25;;;41.20;50.40;;;;;;5052032;28;20040;-67
2021/08/15 14:44:47;;;;;;;11.43;4.88;;;41.20;49.90;;;;;;5052593;28;20036;-65
2021/08/15 14:47:51;;;;;;;15.43;5.50;;;40.80;49.50;;;;;;5052044;28;20139;-67
2021/08/15 14:50:56;;;;;;;12.80;4.32;;;39.50;50.50;;;;;;5052480;28;20048;-66
2021/08/15 14:54:00;;;;;;;19.48;5.00;;;39.60;51.10;;;;;;5052540;28;20055;-65
2021/08/15 14:57:07;;;;;;;17.08;5.07;;;39.40;50.70;;;;;;5052195;28;20048;-65
2021/08/15 15:00:12;;;;;;;18.45;4.68;;;38.40;52.00;;;;;;5052571;28;20040;-67
2021/08/15 15:03:16;;;;;;;22.58;4.20;;;38.90;52.20;;;;;;5051464;28;20112;-67
2021/08/15 15:06:21;;;;;;;16.17;5.38;;;39.30;52.40;;;;;;5052059;28;20048;-66
2021/08/15 15:09:26;;;;;;;15.68;4.50;;;39.50;52.50;;;;;;5050814;28;20052;-66
2021/08/15 15:12:31;;;;;;;17.35;4.65;;;39.50;52.20;;;;;;5052077;28;20048;-66
2021/08/15 15:15:36;;;;;;;15.00;4.90;;;39.40;52.00;;;;;;5052068;28;20395;-66
2021/08/15 15:18:41;;;;;;;18.65;4.82;;;39.30;51.80;;;;;;5051205;28;20052;-66
2021/08/15 15:21:45;;;;;;;12.77;4.93;;;39.30;52.30;;;;;;5049691;28;20048;-66
2021/08/15 15:24:50;;;;;;;12.45;4.28;;;39.00;52.30;;;;;;5052551;28;20040;-66
2021/08/15 15:27:56;;;;;;;18.60;4.68;;;38.90;52.50;;;;;;5032533;28;20423;-67
2021/08/15 15:31:04;;;;;;;15.40;4.82;;;38.90;52.70;;;;;;5031744;28;20040;-66
2021/08/15 15:34:09;;;;;;;15.38;4.63;;;38.60;53.10;;;;;;5044454;28;20503;-66
2021/08/15 15:37:13;;;;;;;14.27;4.25;;;38.80;53.10;;;;;;5051649;28;20044;-66
2021/08/15 15:40:21;;;;;;;12.85;4.57;;;38.80;51.90;;;;;;5051687;28;20052;-65
2021/08/15 15:43:25;;;;;;;18.35;5.05;;;38.80;51.30;;;;;;5051526;28;20115;-65
2021/08/15 15:46:30;;;;;;;16.35;4.40;;;38.50;51.00;;;;;;5051413;28;20047;-67
2021/08/15 15:49:34;;;;;;;11.05;4.65;;;38.30;50.70;;;;;;5050661;28;20510;-67
2021/08/15 15:52:40;;;;;;;13.15;4.18;;;38.10;51.00;;;;;;5051194;28;20048;-68
2021/08/15 15:55:46;;;;;;;12.13;4.18;;;38.10;51.90;;;;;;5050767;28;20403;-66
2021/08/15 15:58:52;;;;;;;13.75;4.15;;;38.00;50.50;;;;;;5050543;28;20048;-66